Time;durP1;ratioP1;P1;durP2;ratioP2;P2;SDS_P1;SDS_P2;PMS_P1;PMS_P2;Temp;Humidity;BMP_temperature;BMP_pressure;BME280_temperature;BME280_humidity;BME280_pressure;Samples;Min_cycle;Max_cycle;Signal;HPM_P1;HPM_P2
2021/12/18 00:01:09;;;;;;;108.97;50.97;;;;;;;3.90;59.03;95312.63;5024633;28;20034;-77
2021/12/18 00:03:35;;;;;;;77.20;36.95;;;;;;;3.89;58.78;95307.63;5007575;28;20026;-77
2021/12/18 00:06:00;;;;;;;40.03;22.00;;;;;;;3.90;59.01;95307.50;5007550;28;20064;-77
2021/12/18 00:08:26;;;;;;;35.17;19.23;;;;;;;3.91;59.13;95308.28;5024492;28;20482;-77
2021/12/18 00:10:52;;;;;;;61.05;28.55;;;;;;;3.90;59.20;95307.50;5022648;28;20042;-77
2021/12/18 00:13:18;;;;;;;72.45;35.08;;;;;;;3.93;58.34;95301.19;5008854;28;20042;-77
2021/12/18 00:15:45;;;;;;;30.60;16.40;;;;;;;3.89;59.15;95310.22;4991475;28;20049;-77
2021/12/18 00:18:11;;;;;;;53.80;24.80;;;;;;;3.86;59.21;95302.84;5007916;28;20421;-78
2021/12/18 00:20:38;;;;;;;36.25;21.15;;;;;;;3.91;59.10;95316.00;5008002;28;20034;-77
2021/12/18 00:23:03;;;;;;;47.55;22.98;;;;;;;3.84;59.18;95308.19;5010343;28;20068;-77
2021/12/18 00:25:29;;;;;;;49.42;25.92;;;;;;;3.85;59.09;95314.91;5011196;28;20038;-78
2021/12/18 00:27:55;;;;;;;73.50;37.25;;;;;;;3.89;59.42;95316.16;5027300;28;20057;-77
2021/12/18 00:30:22;;;;;;;43.60;21.70;;;;;;;3.82;59.25;95310.13;5009685;28;20092;-77
2021/12/18 00:32:47;;;;;;;43.05;22.50;;;;;;;3.87;58.84;95320.69;4994539;28;20037;-78
2021/12/18 00:35:17;;;;;;;59.28;29.85;;;;;;;3.91;59.06;95318.56;5011125;28;20033;-77
2021/12/18 00:37:43;;;;;;;50.17;25.80;;;;;;;3.87;59.29;95312.16;5026978;28;20565;-77
2021/12/18 00:40:17;;;;;;;33.63;17.25;;;;;;;3.94;58.84;95307.94;5010606;28;20038;-78
2021/12/18 00:43:20;;;;;;;24.80;14.35;;;;;;;3.94;58.49;95313.06;5034716;28;20531;-77
2021/12/18 00:45:32;;;;;;;33.63;16.23;;;;;;;3.95;58.13;95303.56;5010579;28;20057;-78
2021/12/18 00:47:57;;;;;;;38.30;19.92;;;;;;;3.86;57.95;95316.50;5066434;23;20037;-77
2021/12/18 00:50:29;;;;;;;28.13;13.02;;;;;;;3.71;58.33;95305.41;5031566;28;20104;-77
2021/12/18 00:52:54;;;;;;;30.83;15.60;;;;;;;3.63;58.60;95304.72;5036590;28;20071;-77
2021/12/18 00:55:20;;;;;;;29.13;16.38;;;;;;;3.51;58.89;95306.91;5049900;28;20052;-77
2021/12/18 00:57:46;;;;;;;20.80;11.85;;;;;;;3.38;59.30;95307.53;5049517;28;20029;-77
2021/12/18 01:00:21;;;;;;;19.42;11.05;;;;;;;3.26;59.58;95306.38;5033678;28;20037;-77
2021/12/18 01:02:46;;;;;;;19.17;10.40;;;;;;;3.19;59.67;95308.03;5049862;28;20416;-77
2021/12/18 01:05:12;;;;;;;14.35;10.13;;;;;;;3.13;60.19;95298.44;5033128;28;20047;-77
2021/12/18 01:07:37;;;;;;;16.35;9.95;;;;;;;3.11;60.16;95302.97;5049650;28;20032;-77
2021/12/18 01:12:54;;;;;;;10.55;8.93;;;;;;;3.08;60.37;95308.41;5028638;28;20049;-77
2021/12/18 01:15:32;;;;;;;15.98;10.20;;;;;;;3.06;59.85;95312.94;5051010;28;20041;-77
2021/12/18 01:23:27;;;;;;;14.35;9.82;;;;;;;2.97;60.46;95297.59;5052520;28;20075;-78
2021/12/18 01:28:21;;;;;;;16.42;9.68;;;;;;;2.84;60.79;95305.09;5087686;23;20504;-77
2021/12/18 01:30:47;;;;;;;11.18;9.07;;;;;;;2.79;60.71;95304.00;5063624;28;20090;-77
2021/12/18 01:33:12;;;;;;;23.73;10.27;;;;;;;2.75;61.03;95308.66;5059381;28;20033;-78
2021/12/18 01:35:42;;;;;;;14.68;10.02;;;;;;;2.74;60.99;95301.13;5060704;28;20040;-78
2021/12/18 01:38:09;;;;;;;16.75;9.88;;;;;;;2.77;60.89;95299.03;5051099;28;20501;-78
2021/12/18 01:40:34;;;;;;;13.15;9.68;;;;;;;2.86;61.03;95308.28;5060299;28;20033;-77
2021/12/18 01:53:43;;;;;;;19.17;10.88;;;;;;;2.87;61.07;95298.78;5044008;28;20083;-77
2021/12/18 01:56:09;;;;;;;18.52;10.13;;;;;;;2.93;60.52;95298.94;5060561;28;20062;-76
2021/12/18 01:58:34;;;;;;;19.85;11.52;;;;;;;3.03;60.50;95295.31;5052100;28;20048;-77
2021/12/18 02:01:02;;;;;;;16.33;12.43;;;;;;;3.09;59.78;95299.75;5057786;28;20033;-76
2021/12/18 02:03:28;;;;;;;21.20;12.30;;;;;;;3.10;60.35;95303.94;5042633;28;20035;-76
2021/12/18 02:05:53;;;;;;;20.70;13.45;;;;;;;3.17;59.99;95299.69;5025630;28;20029;-76
2021/12/18 02:08:20;;;;;;;19.48;14.48;;;;;;;3.22;59.76;95297.38;5041002;28;20044;-77
2021/12/18 02:10:54;;;;;;;20.40;12.55;;;;;;;3.27;59.86;95295.91;5059645;28;20501;-77
2021/12/18 02:21:53;;;;;;;23.33;12.35;;;;;;;3.30;59.79;95294.75;4988188;28;20053;-77
2021/12/18 02:24:22;;;;;;;21.50;12.65;;;;;;;3.40;59.75;95297.84;4974617;28;20088;-77
2021/12/18 02:26:50;;;;;;;24.05;13.02;;;;;;;3.43;59.62;95294.16;4973880;28;20088;-77
2021/12/18 02:29:16;;;;;;;22.90;12.70;;;;;;;3.46;59.71;95293.81;4973582;28;20042;-78
2021/12/18 02:31:42;;;;;;;22.17;14.50;;;;;;;3.51;59.11;95292.28;4973844;28;20037;-77
2021/12/18 02:34:17;;;;;;;24.15;15.85;;;;;;;3.47;59.34;95288.47;4989792;28;20042;-77
2021/12/18 02:36:48;;;;;;;25.77;17.00;;;;;;;3.53;59.17;95300.63;4990800;28;20030;-76
2021/12/18 02:41:45;;;;;;;17.88;11.82;;;;;;;3.58;59.03;95290.63;4990778;28;20052;-76
2021/12/18 02:44:11;;;;;;;19.30;12.63;;;;;;;3.59;58.60;95294.81;4990398;28;20102;-77
2021/12/18 02:46:37;;;;;;;27.17;13.30;;;;;;;3.58;58.93;95300.91;4989114;28;20049;-76
2021/12/18 02:49:12;;;;;;;20.77;12.02;;;;;;;3.60;59.14;95311.03;5005534;28;20030;-76
2021/12/18 02:51:37;;;;;;;17.00;10.77;;;;;;;3.59;58.87;95309.44;4989165;28;20034;-77
2021/12/18 02:54:02;;;;;;;15.95;9.77;;;;;;;3.65;58.42;95311.28;4988406;28;20441;-77
2021/12/18 02:56:28;;;;;;;20.80;13.80;;;;;;;3.57;59.59;95312.16;4990486;28;20049;-77
2021/12/18 02:58:58;;;;;;;24.52;15.00;;;;;;;3.62;59.47;95314.22;4991139;28;20050;-77
2021/12/18 03:01:24;;;;;;;23.38;14.35;;;;;;;3.61;59.33;95307.47;4989615;28;20065;-77
2021/12/18 03:03:54;;;;;;;25.02;15.35;;;;;;;3.63;59.05;95312.44;4973403;28;20076;-77
2021/12/18 03:24:40;;;;;;;11.75;9.88;;;;;;;3.34;63.71;95331.97;4992970;28;20034;-77
2021/12/18 03:27:07;;;;;;;17.13;11.95;;;;;;;3.16;66.90;95323.78;4995060;28;20161;-77
2021/12/18 03:29:32;;;;;;;13.88;10.55;;;;;;;3.05;67.36;95330.13;4994274;28;20034;-76
2021/12/18 03:31:58;;;;;;;14.23;10.77;;;;;;;3.07;68.75;95332.53;4994974;28;20399;-76
2021/12/18 03:34:23;;;;;;;15.48;9.48;;;;;;;3.00;68.74;95330.66;4993963;28;20034;-76
2021/12/18 03:36:51;;;;;;;14.70;9.63;;;;;;;3.05;68.68;95326.75;4994512;28;20030;-76
2021/12/18 03:39:16;;;;;;;19.40;10.13;;;;;;;3.10;68.80;95339.91;5091825;23;20525;-77
2021/12/18 03:41:41;;;;;;;17.15;10.68;;;;;;;3.16;68.39;95349.47;5034569;28;20045;-76
2021/12/18 03:44:07;;;;;;;17.40;10.77;;;;;;;3.16;67.51;95341.78;5028329;28;20030;-76
2021/12/18 03:46:32;;;;;;;20.27;13.25;;;;;;;3.21;67.33;95347.19;5008563;28;20061;-76
2021/12/18 03:48:58;;;;;;;33.65;14.80;;;;;;;3.29;67.87;95344.56;5026223;28;20060;-75
2021/12/18 03:51:23;;;;;;;23.70;14.93;;;;;;;3.29;67.32;95344.56;5027968;28;20033;-76
2021/12/18 03:53:49;;;;;;;24.92;13.68;;;;;;;3.27;67.87;95341.38;5022100;28;20036;-76
2021/12/18 03:56:14;;;;;;;32.30;19.20;;;;;;;3.21;67.04;95342.03;5024197;28;20389;-76
2021/12/18 03:58:40;;;;;;;47.33;23.60;;;;;;;3.24;67.55;95345.06;5024722;28;20030;-76
2021/12/18 04:01:05;;;;;;;48.42;21.63;;;;;;;3.22;67.13;95335.94;5026818;28;20101;-76
2021/12/18 04:03:31;;;;;;;42.92;23.88;;;;;;;3.26;65.30;95344.91;5023779;28;20560;-76
2021/12/18 04:05:56;;;;;;;34.97;19.13;;;;;;;3.28;65.95;95340.41;5014922;28;20038;-76
2021/12/18 04:08:22;;;;;;;27.20;15.95;;;;;;;3.29;65.89;95339.44;5032728;28;20037;-77
2021/12/18 04:10:50;;;;;;;25.10;15.15;;;;;;;3.30;65.59;95338.44;5033345;28;20072;-77
2021/12/18 04:13:15;;;;;;;22.85;16.08;;;;;;;3.34;65.37;95338.91;5031661;28;20046;-77
2021/12/18 04:15:41;;;;;;;44.33;23.02;;;;;;;3.37;65.77;95336.78;5035762;28;20045;-77
2021/12/18 04:18:06;;;;;;;60.53;23.77;;;;;;;3.36;65.72;95340.31;5047961;28;20037;-77
2021/12/18 04:20:32;;;;;;;52.15;22.05;;;;;;;3.35;65.14;95350.78;5037152;28;20593;-77
2021/12/18 04:22:57;;;;;;;44.03;21.63;;;;;;;3.28;65.61;95348.09;5019754;28;20408;-77
2021/12/18 04:25:23;;;;;;;33.65;19.90;;;;;;;3.26;65.13;95344.91;5023682;28;20033;-77
2021/12/18 04:27:48;;;;;;;57.78;28.80;;;;;;;3.23;65.28;95352.94;5026252;28;20056;-77
2021/12/18 04:30:14;;;;;;;52.03;29.05;;;;;;;3.21;66.27;95347.19;5024249;28;20041;-77
2021/12/18 04:32:39;;;;;;;49.72;24.50;;;;;;;3.25;65.20;95348.44;5024196;28;20028;-77
2021/12/18 04:35:05;;;;;;;32.30;19.42;;;;;;;3.19;65.22;95344.78;5026191;28;20046;-79
2021/12/18 04:37:31;;;;;;;38.45;21.00;;;;;;;3.22;64.44;95348.78;5025322;28;20112;-77
2021/12/18 04:39:56;;;;;;;38.22;22.15;;;;;;;3.22;64.33;95349.59;5011870;28;20034;-77
2021/12/18 04:42:21;;;;;;;23.00;15.25;;;;;;;3.21;64.79;95347.19;5044589;28;20034;-77
2021/12/18 04:44:47;;;;;;;29.23;15.95;;;;;;;3.13;64.43;95345.50;5022562;28;20041;-77
2021/12/18 04:47:18;;;;;;;34.70;16.58;;;;;;;3.13;64.43;95365.25;5022280;28;20042;-78
2021/12/18 04:49:43;;;;;;;34.97;21.70;;;;;;;3.13;64.18;95360.13;4971097;28;20055;-77
2021/12/18 04:52:09;;;;;;;39.42;22.40;;;;;;;3.09;63.77;95367.38;4987579;28;20057;-77
2021/12/18 04:54:39;;;;;;;47.15;27.38;;;;;;;3.06;64.36;95366.88;4964041;28;20070;-77
2021/12/18 04:57:05;;;;;;;43.65;25.92;;;;;;;3.06;63.56;95374.59;4988381;28;20577;-77
2021/12/18 04:59:31;;;;;;;39.67;21.88;;;;;;;3.12;64.73;95384.22;4983309;28;20141;-76
2021/12/18 05:01:56;;;;;;;35.42;21.95;;;;;;;3.09;64.63;95382.78;4962951;28;20030;-77
2021/12/18 05:04:22;;;;;;;25.23;15.20;;;;;;;3.10;64.54;95386.16;4961304;28;20038;-76
2021/12/18 05:06:48;;;;;;;27.05;14.27;;;;;;;3.08;63.99;95398.34;4963515;28;20618;-76
2021/12/18 05:09:14;;;;;;;28.83;14.05;;;;;;;3.11;62.90;95398.03;4945208;28;20074;-76
2021/12/18 05:11:40;;;;;;;20.77;13.85;;;;;;;3.08;63.53;95393.22;4972479;28;20045;-76
2021/12/18 05:14:06;;;;;;;24.55;14.02;;;;;;;3.07;64.02;95401.88;4961373;28;20085;-76
2021/12/18 05:16:31;;;;;;;22.35;12.73;;;;;;;3.09;63.76;95405.91;4946040;28;20023;-76
2021/12/18 05:18:57;;;;;;;24.98;11.85;;;;;;;3.14;63.03;95413.09;4946743;28;20426;-76
2021/12/18 05:21:22;;;;;;;20.13;12.45;;;;;;;3.13;63.41;95419.22;4977013;28;20039;-76
2021/12/18 05:23:48;;;;;;;25.25;14.80;;;;;;;3.19;63.75;95421.09;4961836;28;20042;-77
2021/12/18 05:26:17;;;;;;;25.65;18.23;;;;;;;3.21;63.70;95424.28;4971879;28;20049;-76
2021/12/18 05:28:42;;;;;;;26.95;17.05;;;;;;;3.26;62.89;95427.97;4971569;28;20038;-76
2021/12/18 05:31:09;;;;;;;24.70;15.30;;;;;;;3.24;63.33;95423.94;4971688;28;20497;-76
2021/12/18 05:33:35;;;;;;;20.08;12.93;;;;;;;3.29;62.50;95425.03;4977600;28;20027;-76
2021/12/18 05:36:03;;;;;;;20.88;13.50;;;;;;;3.34;62.26;95434.81;4962352;28;20030;-76
2021/12/18 05:38:28;;;;;;;25.02;13.63;;;;;;;3.33;62.35;95422.13;4972141;28;20045;-77
2021/12/18 05:40:54;;;;;;;24.65;13.55;;;;;;;3.35;62.48;95440.75;4961507;28;20031;-76
2021/12/18 05:43:19;;;;;;;33.40;17.17;;;;;;;3.34;62.06;95434.81;4971536;28;20557;-77
2021/12/18 05:45:46;;;;;;;24.05;14.90;;;;;;;3.35;62.42;95436.41;4961928;28;20554;-77
2021/12/18 05:48:12;;;;;;;21.20;13.38;;;;;;;3.36;62.54;95437.19;4973124;28;20026;-77
2021/12/18 05:50:37;;;;;;;15.27;10.73;;;;;;;3.36;61.73;95438.00;4978850;28;20039;-77
2021/12/18 05:53:03;;;;;;;11.73;9.52;;;;;;;3.39;61.84;95445.34;4958959;28;20023;-78
2021/12/18 05:55:29;;;;;;;15.93;11.10;;;;;;;3.41;61.97;95448.56;4947642;28;20047;-76
2021/12/18 05:57:55;;;;;;;31.88;16.90;;;;;;;3.42;61.39;95447.59;4947956;28;20126;-78
2021/12/18 06:00:20;;;;;;;38.53;20.58;;;;;;;3.41;60.87;95445.97;4949108;28;20455;-78
2021/12/18 06:02:46;;;;;;;36.95;18.42;;;;;;;3.39;60.95;95442.78;4962080;28;20035;-76
2021/12/18 06:05:12;;;;;;;36.20;17.75;;;;;;;3.36;61.90;95448.28;4960466;28;20101;-77
2021/12/18 06:07:55;;;;;;;25.95;14.68;;;;;;;3.34;63.60;95452.78;4947033;28;20034;-77
2021/12/18 06:10:22;;;;;;;22.67;11.45;;;;;;;3.26;63.64;95468.28;4951888;28;20402;-78
2021/12/18 06:12:47;;;;;;;19.60;13.07;;;;;;;3.14;65.74;95460.16;4973309;28;20482;-78
2021/12/18 06:15:13;;;;;;;20.52;11.90;;;;;;;3.12;65.19;95458.72;4948436;28;20609;-77
2021/12/18 06:17:38;;;;;;;26.77;11.00;;;;;;;3.10;65.55;95458.09;4986217;28;20031;-77
2021/12/18 06:20:04;;;;;;;22.35;13.52;;;;;;;3.12;65.77;95472.38;4970659;28;20062;-77
2021/12/18 06:22:30;;;;;;;21.67;11.40;;;;;;;3.18;65.39;95476.03;4961024;28;20035;-77
2021/12/18 06:24:55;;;;;;;23.63;12.85;;;;;;;3.22;65.51;95477.28;4961873;28;20031;-77
2021/12/18 06:27:21;;;;;;;20.48;12.85;;;;;;;3.23;65.27;95473.75;4978271;28;20039;-77
2021/12/18 06:29:47;;;;;;;24.83;13.35;;;;;;;3.31;64.88;95477.06;4961472;28;20109;-77
2021/12/18 06:32:13;;;;;;;17.88;11.63;;;;;;;3.35;65.29;95485.25;4971719;28;20058;-77
2021/12/18 06:34:38;;;;;;;19.73;12.25;;;;;;;3.44;64.10;95494.50;4945819;28;20077;-77
2021/12/18 06:37:04;;;;;;;21.67;11.68;;;;;;;3.46;63.94;95492.56;4961855;28;20042;-78
2021/12/18 06:39:29;;;;;;;19.65;12.65;;;;;;;3.47;64.13;95494.16;4973334;28;20117;-79
2021/12/18 06:41:54;;;;;;;22.95;15.77;;;;;;;3.57;64.26;95497.28;4947034;28;20431;-77
2021/12/18 06:44:20;;;;;;;28.20;19.20;;;;;;;3.58;64.19;95498.91;4970752;28;20031;-77
2021/12/18 06:46:45;;;;;;;31.13;17.25;;;;;;;3.68;64.19;95497.88;4961665;28;20053;-77
2021/12/18 06:49:11;;;;;;;73.47;35.35;;;;;;;3.70;64.35;95501.06;4962173;28;20038;-77
2021/12/18 06:51:37;;;;;;;49.60;24.83;;;;;;;3.82;63.96;95507.41;4946171;28;20034;-77
2021/12/18 06:54:02;;;;;;;75.78;37.20;;;;;;;3.85;64.06;95505.28;4972797;28;20031;-76
2021/12/18 06:56:28;;;;;;;47.40;27.67;;;;;;;3.87;64.14;95500.75;4970955;28;20097;-76
2021/12/18 06:58:53;;;;;;;52.03;23.40;;;;;;;3.94;63.79;95508.63;4944938;28;20050;-76
2021/12/18 07:01:19;;;;;;;36.53;19.88;;;;;;;3.92;63.86;95511.38;4945118;28;20046;-78
2021/12/18 07:03:44;;;;;;;44.60;19.42;;;;;;;3.96;63.86;95516.94;4945239;28;20039;-77
2021/12/18 07:06:10;;;;;;;38.97;20.75;;;;;;;3.98;64.00;95520.16;4971535;28;20038;-77
2021/12/18 07:08:37;;;;;;;33.80;18.85;;;;;;;4.01;63.41;95519.78;4972070;28;20023;-77
2021/12/18 07:11:03;;;;;;;60.55;31.25;;;;;;;4.11;62.39;95522.94;4948279;28;20059;-78
2021/12/18 07:13:29;;;;;;;48.03;26.42;;;;;;;4.16;63.05;95527.56;4964675;28;20062;-78
2021/12/18 07:15:54;;;;;;;38.85;21.55;;;;;;;4.24;62.81;95522.34;4958129;28;20051;-79
2021/12/18 07:18:20;;;;;;;53.25;28.80;;;;;;;4.38;62.10;95520.75;4963441;28;20027;-80
2021/12/18 07:20:48;;;;;;;48.95;25.83;;;;;;;4.46;61.50;95518.91;4962816;28;20042;-76
2021/12/18 07:23:14;;;;;;;56.63;26.13;;;;;;;4.56;62.07;95525.59;4977563;28;20030;-78
2021/12/18 07:25:39;;;;;;;54.17;27.45;;;;;;;4.56;61.64;95528.16;4961391;28;20397;-78
2021/12/18 07:28:05;;;;;;;66.55;33.30;;;;;;;4.72;61.23;95533.94;4970494;28;20046;-77
2021/12/18 07:30:30;;;;;;;72.93;35.65;;;;;;;4.87;60.88;95536.50;4971073;28;20491;-78
2021/12/18 07:32:59;;;;;;;77.13;40.10;;;;;;;4.98;60.30;95540.41;4965197;28;20038;-78
2021/12/18 07:35:24;;;;;;;92.03;48.45;;;;;;;5.05;59.70;95534.38;4947693;28;20026;-79
2021/12/18 07:37:49;;;;;;;80.97;50.05;;;;;;;5.17;59.88;95542.44;4981563;23;20157;-77
2021/12/18 07:40:15;;;;;;;88.93;46.88;;;;;;;5.12;59.91;95540.41;5063616;28;20063;-77
2021/12/18 07:42:41;;;;;;;92.32;45.35;;;;;;;5.07;59.76;95540.16;5063134;28;20036;-77
2021/12/18 07:45:09;;;;;;;115.18;60.22;;;;;;;5.23;59.96;95544.31;5062653;28;20033;-77
2021/12/18 07:47:34;;;;;;;114.22;57.55;;;;;;;5.42;59.55;95548.09;5041534;28;20039;-77
2021/12/18 07:50:02;;;;;;;104.38;56.42;;;;;;;5.56;58.32;95547.25;5063604;28;20032;-78
2021/12/18 07:52:27;;;;;;;83.18;44.65;;;;;;;5.63;57.58;95557.63;5045105;28;20044;-76
2021/12/18 07:54:53;;;;;;;74.07;38.03;;;;;;;5.76;57.56;95565.53;5062831;28;20028;-76
2021/12/18 07:57:18;;;;;;;52.67;27.08;;;;;;;5.85;57.21;95564.41;5060319;28;20033;-76
2021/12/18 07:59:44;;;;;;;38.53;22.98;;;;;;;5.82;56.04;95572.50;5055774;28;20500;-76
2021/12/18 08:02:09;;;;;;;42.88;23.80;;;;;;;5.72;55.59;95572.03;5060995;28;20041;-76
2021/12/18 08:04:35;;;;;;;37.05;19.80;;;;;;;5.71;56.36;95573.03;5027046;28;20077;-76
2021/12/18 08:07:01;;;;;;;37.50;23.52;;;;;;;5.68;56.79;95576.72;5062079;28;20024;-77
2021/12/18 08:09:26;;;;;;;37.05;19.75;;;;;;;5.62;55.95;95579.25;5059378;28;20070;-76
2021/12/18 08:11:52;;;;;;;47.72;26.88;;;;;;;5.60;56.17;95576.84;5059263;28;20033;-76
2021/12/18 08:14:17;;;;;;;26.90;16.30;;;;;;;5.65;55.47;95581.47;5061863;28;20035;-76
2021/12/18 08:16:43;;;;;;;35.42;20.38;;;;;;;5.62;55.36;95581.84;5062395;28;20037;-76
2021/12/18 08:19:08;;;;;;;39.40;25.15;;;;;;;5.57;55.80;95581.59;5062914;28;20024;-77
2021/12/18 08:21:33;;;;;;;40.25;23.85;;;;;;;5.57;55.26;95584.16;5062688;28;20063;-77
2021/12/18 08:23:59;;;;;;;57.38;29.02;;;;;;;5.70;55.99;95586.91;5063740;28;20033;-77
2021/12/18 08:26:24;;;;;;;59.65;32.13;;;;;;;5.94;54.60;95591.75;5059915;28;20031;-77
2021/12/18 08:28:50;;;;;;;33.17;20.17;;;;;;;6.17;54.64;95581.22;5062320;28;20041;-78
2021/12/18 08:31:15;;;;;;;41.00;24.67;;;;;;;6.51;54.46;95587.47;5044406;28;20044;-76
2021/12/18 08:33:43;;;;;;;41.72;20.48;;;;;;;6.55;53.59;95586.13;5059979;28;20037;-76
2021/12/18 08:36:09;;;;;;;34.38;21.35;;;;;;;6.73;53.45;95583.06;5060684;28;20040;-76
2021/12/18 08:38:34;;;;;;;32.75;16.80;;;;;;;6.86;52.81;95585.75;5026966;28;20029;-76
2021/12/18 08:40:59;;;;;;;38.97;21.77;;;;;;;7.09;53.80;95588.84;5045692;28;20051;-78
2021/12/18 08:43:25;;;;;;;18.40;12.50;;;;;;;7.22;51.92;95591.50;5060122;28;20106;-77
2021/12/18 08:45:50;;;;;;;26.77;13.75;;;;;;;7.27;52.37;95587.53;5042682;28;20033;-76
2021/12/18 08:48:16;;;;;;;21.35;12.40;;;;;;;7.36;51.21;95578.63;5043576;28;20036;-76
2021/12/18 08:50:41;;;;;;;24.63;13.75;;;;;;;7.34;51.04;95588.38;5044504;28;20485;-77
2021/12/18 08:53:07;;;;;;;20.55;11.48;;;;;;;7.23;51.26;95582.75;5043850;28;20033;-77
2021/12/18 08:55:33;;;;;;;17.75;9.52;;;;;;;7.17;51.52;95580.94;5061791;28;20048;-77
2021/12/18 08:57:58;;;;;;;15.80;8.32;;;;;;;6.89;51.31;95582.75;5061563;28;20025;-77
2021/12/18 09:00:29;;;;;;;13.68;7.60;;;;;;;6.52;51.68;95591.66;5043185;28;20029;-76
2021/12/18 09:02:54;;;;;;;13.38;7.18;;;;;;;6.19;52.73;95588.81;5059557;28;20037;-76
2021/12/18 09:05:20;;;;;;;10.90;5.55;;;;;;;5.96;52.58;95586.38;5059096;28;20040;-77
2021/12/18 09:07:46;;;;;;;8.85;6.90;;;;;;;5.82;53.27;95582.03;5059860;28;20029;-77
2021/12/18 09:10:12;;;;;;;10.40;6.82;;;;;;;5.61;53.62;95583.63;5026378;28;20140;-77
2021/12/18 09:12:38;;;;;;;14.00;7.20;;;;;;;5.59;54.40;95582.22;5042652;28;20075;-76
2021/12/18 09:15:03;;;;;;;22.38;12.50;;;;;;;5.68;54.92;95581.09;5043082;28;20082;-77
2021/12/18 09:17:29;;;;;;;20.00;12.13;;;;;;;5.73;55.55;95573.63;5058548;28;20036;-77
2021/12/18 09:20:00;;;;;;;11.93;7.43;;;;;;;5.63;54.39;95580.84;5059524;28;20043;-76
2021/12/18 09:22:26;;;;;;;14.15;6.60;;;;;;;5.69;54.43;95577.53;5060505;28;20064;-76
2021/12/18 09:24:51;;;;;;;10.40;6.00;;;;;;;5.65;54.47;95576.31;5060237;28;20033;-77
2021/12/18 09:27:17;;;;;;;8.63;5.97;;;;;;;5.65;54.48;95586.63;5060568;28;20036;-76
2021/12/18 09:29:43;;;;;;;18.90;10.07;;;;;;;5.72;55.30;95572.84;5059692;28;20036;-77
2021/12/18 09:32:08;;;;;;;17.63;8.18;;;;;;;5.48;55.03;95569.78;5041026;28;20135;-77
2021/12/18 09:34:34;;;;;;;12.32;6.75;;;;;;;5.36;55.68;95570.22;5042728;28;20480;-77
2021/12/18 09:36:59;;;;;;;19.20;12.32;;;;;;;5.42;56.38;95585.00;5059020;28;20095;-77
2021/12/18 09:39:28;;;;;;;11.40;9.13;;;;;;;5.48;55.55;95585.25;5059432;28;20051;-76
2021/12/18 09:41:53;;;;;;;14.73;9.63;;;;;;;5.53;55.76;95583.75;5059687;28;20101;-76
2021/12/18 09:44:27;;;;;;;18.00;10.32;;;;;;;5.62;55.45;95584.41;5058683;28;20024;-76
2021/12/18 09:46:52;;;;;;;15.43;10.13;;;;;;;5.66;54.93;95572.75;5059066;28;20025;-76
2021/12/18 09:49:18;;;;;;;12.95;9.43;;;;;;;5.69;54.96;95574.94;5042240;28;20091;-77
2021/12/18 09:51:43;;;;;;;21.45;14.75;;;;;;;5.76;55.01;95573.25;5058997;28;20492;-76
2021/12/18 09:54:08;;;;;;;21.17;13.13;;;;;;;5.84;54.76;95575.72;5058903;28;20028;-76
2021/12/18 09:56:34;;;;;;;16.77;9.70;;;;;;;5.86;54.59;95571.19;5042058;28;20036;-76
2021/12/18 09:58:59;;;;;;;12.63;7.90;;;;;;;5.92;54.91;95567.91;5058512;28;20119;-77
2021/12/18 10:01:25;;;;;;;12.50;7.00;;;;;;;6.11;53.74;95574.22;5058682;28;20048;-76
2021/12/18 10:03:51;;;;;;;8.98;6.93;;;;;;;6.25;53.58;95563.03;5042044;28;20021;-76
2021/12/18 10:06:29;;;;;;;13.52;10.05;;;;;;;6.35;53.57;95561.91;5059905;28;20056;-77
2021/12/18 10:08:55;;;;;;;28.65;18.05;;;;;;;6.39;53.62;95555.38;5059392;28;20494;-76
2021/12/18 10:11:20;;;;;;;27.67;16.00;;;;;;;6.45;54.41;95552.84;5058680;28;20037;-76
2021/12/18 10:13:57;;;;;;;17.75;13.02;;;;;;;6.50;53.76;95552.28;5054611;28;20095;-76
2021/12/18 10:16:23;;;;;;;22.63;14.82;;;;;;;6.55;52.90;95548.16;5059801;28;20035;-76
2021/12/18 10:18:49;;;;;;;18.48;11.20;;;;;;;6.61;52.37;95544.81;5057816;28;20025;-78
2021/12/18 10:21:22;;;;;;;7.40;6.38;;;;;;;6.58;51.34;95547.78;5042491;28;20040;-77
2021/12/18 10:23:49;;;;;;;6.32;5.68;;;;;;;6.52;50.74;95547.75;5056762;28;20043;-77
2021/12/18 10:26:35;;;;;;;7.82;6.20;;;;;;;6.54;50.25;95551.72;5040992;28;20032;-77
2021/12/18 10:29:00;;;;;;;7.68;5.22;;;;;;;6.40;49.35;95549.22;5060230;28;20055;-77
2021/12/18 10:31:44;;;;;;;14.07;5.95;;;;;;;6.22;50.31;95547.91;5041895;28;20032;-78
2021/12/18 10:34:23;;;;;;;9.82;5.95;;;;;;;6.29;50.87;95548.75;5042586;28;20403;-77
2021/12/18 10:37:10;;;;;;;8.82;6.43;;;;;;;6.45;50.18;95545.09;5042823;28;20470;-77
2021/12/18 10:39:36;;;;;;;5.85;5.13;;;;;;;6.56;48.39;95538.63;5062285;28;20535;-77
2021/12/18 10:42:19;;;;;;;6.18;5.57;;;;;;;6.56;48.08;95542.00;5062132;28;20500;-76
2021/12/18 10:44:54;;;;;;;9.43;5.35;;;;;;;6.47;48.71;95530.19;5061813;28;20876;-77
2021/12/18 10:47:21;;;;;;;6.82;4.93;;;;;;;6.51;48.07;95526.28;5057495;28;20036;-76
2021/12/18 10:49:47;;;;;;;6.80;5.22;;;;;;;6.55;48.75;95531.84;5043810;28;20060;-77
2021/12/18 10:52:12;;;;;;;5.07;4.53;;;;;;;6.52;47.84;95516.72;5044262;28;20028;-80
2021/12/18 10:54:37;;;;;;;5.22;4.70;;;;;;;6.37;46.79;95519.41;5059011;28;20077;-77
2021/12/18 10:57:03;;;;;;;8.52;4.97;;;;;;;6.18;47.31;95520.03;5058990;28;20409;-78
2021/12/18 10:59:31;;;;;;;6.53;4.93;;;;;;;5.88;48.70;95525.34;5043972;28;20032;-78
2021/12/18 11:02:11;;;;;;;4.50;3.22;;;;;;;5.70;46.25;95523.19;5060811;28;20119;-78
2021/12/18 11:04:40;;;;;;;4.22;3.30;;;;;;;4.65;47.81;95537.41;5059762;28;20051;-78
2021/12/18 11:07:19;;;;;;;3.65;3.33;;;;;;;4.59;49.08;95513.16;5063923;28;20029;-79
2021/12/18 11:15:28;;;;;;;7.53;4.00;;;;;;;4.36;50.06;95522.69;5073304;28;20047;-79
2021/12/18 11:17:54;;;;;;;5.13;4.35;;;;;;;4.00;51.75;95520.78;5083004;28;20037;-78
2021/12/18 11:20:20;;;;;;;5.30;4.72;;;;;;;3.72;52.20;95527.41;5062021;28;20025;-80
2021/12/18 11:22:48;;;;;;;4.57;4.13;;;;;;;3.66;53.11;95535.81;5064831;28;20044;-80
2021/12/18 11:25:14;;;;;;;3.70;3.40;;;;;;;3.46;53.25;95541.41;5060866;28;20159;-80
2021/12/18 11:27:39;;;;;;;3.80;3.28;;;;;;;3.64;53.57;95522.34;5063284;28;20029;-79
2021/12/18 11:30:08;;;;;;;3.60;3.35;;;;;;;3.99;52.47;95526.09;5052790;23;20037;-79
2021/12/18 11:32:36;;;;;;;5.80;4.13;;;;;;;4.04;52.02;95524.59;5044627;28;20076;-81
2021/12/18 11:35:05;;;;;;;6.10;4.60;;;;;;;4.26;51.86;95522.19;5045655;28;20505;-80
2021/12/18 11:37:42;;;;;;;5.05;3.65;;;;;;;4.31;51.64;95530.97;5044989;28;20036;-81
2021/12/18 11:40:10;;;;;;;8.23;4.05;;;;;;;4.30;52.42;95536.28;5045875;28;20528;-80
2021/12/18 11:42:38;;;;;;;5.57;4.35;;;;;;;4.21;52.14;95531.19;5027035;28;20031;-80
2021/12/18 11:45:05;;;;;;;6.35;4.50;;;;;;;4.13;51.69;95533.84;5043982;28;20037;-80
2021/12/18 11:47:35;;;;;;;4.88;4.30;;;;;;;4.10;52.92;95523.91;5061140;28;20033;-81
2021/12/18 11:50:24;;;;;;;8.93;5.25;;;;;;;4.26;52.69;95522.19;5061774;28;20087;-81
2021/12/18 11:53:08;;;;;;;5.97;4.78;;;;;;;4.36;52.83;95525.28;5065267;28;20025;-79
2021/12/18 11:55:35;;;;;;;4.80;4.22;;;;;;;4.59;51.96;95527.81;5047265;28;20044;-79
2021/12/18 11:58:13;;;;;;;5.93;4.80;;;;;;;4.69;51.24;95531.69;5047552;28;20025;-78
2021/12/18 12:00:51;;;;;;;6.05;4.07;;;;;;;4.77;50.86;95541.94;5043761;28;20114;-79
2021/12/18 12:03:29;;;;;;;4.35;3.78;;;;;;;4.69;53.48;95536.84;5064720;28;20167;-80
2021/12/18 12:05:55;;;;;;;4.90;3.72;;;;;;;4.48;55.16;95537.56;5063736;28;20089;-80
2021/12/18 12:08:41;;;;;;;3.25;2.95;;;;;;;4.45;56.03;95537.91;5044689;28;20060;-81
2021/12/18 12:11:15;;;;;;;3.88;3.40;;;;;;;4.27;57.01;95540.03;5059827;28;20036;-79
2021/12/18 12:14:08;;;;;;;4.20;3.45;;;;;;;4.15;57.57;95542.19;5063921;28;20033;-80
2021/12/18 12:16:46;;;;;;;3.55;3.25;;;;;;;4.14;59.43;95543.19;5054651;28;20036;-80
2021/12/18 12:19:14;;;;;;;4.22;3.60;;;;;;;4.03;59.02;95537.63;5058164;28;20029;-80
2021/12/18 12:21:50;;;;;;;5.35;3.92;;;;;;;3.83;60.13;95548.41;5049238;28;20045;-80
2021/12/18 12:24:17;;;;;;;4.93;4.43;;;;;;;3.81;59.42;95552.13;5063206;28;20040;-79
2021/12/18 12:26:43;;;;;;;5.10;3.88;;;;;;;3.82;59.74;95540.84;5070477;28;20053;-80